createdAt,value
2022-12-13T00:01:30.494Z,82.36
2022-12-13T00:04:00.063Z,82.70
2022-12-13T00:06:28.158Z,82.77
2022-12-13T00:08:55.000Z,83.76
2022-12-13T00:11:21.877Z,84.03
2022-12-13T00:13:49.593Z,84.09
2022-12-13T00:16:20.079Z,82.58
2022-12-13T00:18:55.270Z,82.87
2022-12-13T00:21:26.170Z,82.24
2022-12-13T00:23:53.728Z,82.02
2022-12-13T00:26:32.561Z,80.98
2022-12-13T00:29:01.652Z,81.69
2022-12-13T00:34:18.865Z,81.82
2022-12-13T00:36:46.619Z,81.37
2022-12-13T00:39:16.389Z,82.50
2022-12-13T00:41:45.008Z,82.65
2022-12-13T00:44:13.401Z,83.12
2022-12-13T00:46:41.430Z,82.35
2022-12-13T00:49:10.708Z,83.87
2022-12-13T00:51:37.955Z,84.34
2022-12-13T00:54:05.215Z,84.60
2022-12-13T00:56:33.859Z,85.66
2022-12-13T00:59:00.985Z,85.16
2022-12-13T01:01:33.860Z,85.52
2022-12-13T01:04:03.610Z,85.55
2022-12-13T01:06:43.883Z,85.57
2022-12-13T01:09:27.108Z,84.24
2022-12-13T01:12:01.888Z,84.07
2022-12-13T01:14:30.058Z,85.14
2022-12-13T01:16:57.097Z,83.30
2022-12-13T01:19:25.967Z,82.48
2022-12-13T01:22:01.246Z,83.27
2022-12-13T01:24:29.665Z,82.56
2022-12-13T01:26:57.211Z,81.47
2022-12-13T01:29:25.858Z,82.08
2022-12-13T01:31:54.126Z,81.82
2022-12-13T01:34:26.599Z,81.65
2022-12-13T01:36:58.637Z,82.00
2022-12-13T01:39:27.117Z,82.71
2022-12-13T01:42:03.300Z,83.50
2022-12-13T01:44:57.912Z,84.62
2022-12-13T01:47:38.154Z,85.65
2022-12-13T01:50:31.970Z,86.54
2022-12-13T01:53:00.836Z,87.19
2022-12-13T01:55:32.419Z,88.07
2022-12-13T01:58:03.922Z,88.71
2022-12-13T02:00:34.024Z,89.19
2022-12-13T02:03:02.352Z,89.97
2022-12-13T02:05:42.738Z,90.84
2022-12-13T02:08:12.077Z,90.52
2022-12-13T02:10:39.819Z,91.06
2022-12-13T02:13:06.682Z,92.10
2022-12-13T02:15:55.313Z,91.35
2022-12-13T02:19:00.544Z,91.01
2022-12-13T02:21:48.272Z,91.75
2022-12-13T02:24:48.448Z,92.01
2022-12-13T02:27:50.914Z,90.60
2022-12-13T02:30:39.216Z,92.06
2022-12-13T02:33:46.087Z,92.35
2022-12-13T02:36:49.233Z,91.04
2022-12-13T02:39:30.258Z,91.28
2022-12-13T02:42:21.316Z,91.21
2022-12-13T02:45:22.273Z,89.50
2022-12-13T02:47:54.977Z,91.04
2022-12-13T02:50:23.411Z,90.81
2022-12-13T02:52:51.731Z,93.02
2022-12-13T02:55:18.671Z,92.63
2022-12-13T02:57:46.517Z,92.91
2022-12-13T03:00:50.081Z,91.82
2022-12-13T03:03:22.093Z,91.69
2022-12-13T03:06:35.612Z,91.25
2022-12-13T03:09:38.351Z,91.33
2022-12-13T03:12:32.002Z,91.50
2022-12-13T03:15:35.598Z,91.00
2022-12-13T03:18:17.241Z,92.38
2022-12-13T03:20:56.087Z,91.62
2022-12-13T03:23:23.912Z,91.13
2022-12-13T03:25:55.923Z,91.51
2022-12-13T03:28:23.347Z,91.78
2022-12-13T03:30:50.272Z,91.41
2022-12-13T03:33:17.689Z,91.37
2022-12-13T03:35:45.832Z,91.06
2022-12-13T03:38:21.497Z,90.59
2022-12-13T03:40:54.581Z,91.08
2022-12-13T03:43:22.965Z,91.00
2022-12-13T03:45:52.024Z,91.28
2022-12-13T03:48:22.713Z,91.18
2022-12-13T03:50:52.718Z,91.24
2022-12-13T03:53:22.462Z,90.62
2022-12-13T03:56:01.087Z,89.58
2022-12-13T03:58:35.221Z,90.17
2022-12-13T04:01:02.463Z,89.81
2022-12-13T04:03:29.330Z,89.79
2022-12-13T04:05:56.194Z,89.27
2022-12-13T04:08:23.056Z,89.64
2022-12-13T04:10:49.926Z,90.15
2022-12-13T04:13:34.612Z,90.85
2022-12-13T04:16:02.995Z,90.83
2022-12-13T04:18:30.510Z,91.86
2022-12-13T04:20:58.012Z,91.07
2022-12-13T04:23:24.901Z,92.48
2022-12-13T04:25:52.035Z,91.54
2022-12-13T04:28:22.322Z,92.00
2022-12-13T04:30:53.662Z,91.32
2022-12-13T04:33:25.276Z,90.08
2022-12-13T04:35:55.062Z,91.46
2022-12-13T04:38:21.910Z,91.29
2022-12-13T04:40:48.738Z,91.13
2022-12-13T04:43:18.892Z,91.88
2022-12-13T04:45:55.708Z,92.00
2022-12-13T04:48:31.006Z,91.95
2022-12-13T04:51:00.975Z,91.21
2022-12-13T04:53:30.082Z,91.79
2022-12-13T04:55:57.518Z,91.20
2022-12-13T04:58:30.328Z,90.29
2022-12-13T05:00:57.756Z,90.87
2022-12-13T05:03:24.662Z,90.78
2022-12-13T05:05:51.563Z,91.04
2022-12-13T05:08:18.430Z,91.51
2022-12-13T05:10:45.278Z,91.35
2022-12-13T05:13:12.083Z,91.05
2022-12-13T05:15:38.921Z,91.39
2022-12-13T05:18:09.872Z,90.89
2022-12-13T05:20:41.063Z,90.42
2022-12-13T05:23:07.958Z,90.14
2022-12-13T05:25:36.938Z,90.52
2022-12-13T05:28:08.990Z,89.87
2022-12-13T05:30:53.017Z,90.08
2022-12-13T05:33:19.978Z,89.09
2022-12-13T05:35:47.323Z,90.51
2022-12-13T05:38:14.137Z,90.11
2022-12-13T05:40:41.183Z,89.64
2022-12-13T05:43:21.320Z,90.33
2022-12-13T05:45:49.158Z,90.30
2022-12-13T05:48:24.389Z,90.49
2022-12-13T05:50:52.395Z,90.37
2022-12-13T05:53:40.133Z,90.61
2022-12-13T05:56:07.674Z,90.61
2022-12-13T05:58:35.661Z,90.31
2022-12-13T06:01:13.375Z,90.64
2022-12-13T06:03:41.973Z,90.39
2022-12-13T06:06:11.313Z,90.27
2022-12-13T06:08:38.991Z,90.16
2022-12-13T06:11:31.430Z,89.52
2022-12-13T06:14:00.885Z,89.43
2022-12-13T06:16:28.484Z,89.99
2022-12-13T06:19:03.788Z,90.33
2022-12-13T06:21:41.694Z,90.74
2022-12-13T06:24:18.050Z,90.03
2022-12-13T06:26:45.891Z,90.33
2022-12-13T06:29:23.624Z,89.47
2022-12-13T06:32:02.162Z,90.09
2022-12-13T06:34:33.506Z,90.27
2022-12-13T06:37:01.289Z,89.85
2022-12-13T06:39:32.827Z,89.87
2022-12-13T06:42:10.482Z,89.63
2022-12-13T06:44:37.361Z,89.60
2022-12-13T06:47:10.311Z,89.73
2022-12-13T06:49:41.849Z,89.81
2022-12-13T06:52:12.553Z,89.55
2022-12-13T06:54:39.889Z,90.58
2022-12-13T06:57:06.672Z,90.41
2022-12-13T06:59:33.623Z,90.80
2022-12-13T07:02:03.122Z,89.92
2022-12-13T07:04:31.897Z,89.59
2022-12-13T07:07:01.802Z,89.35
2022-12-13T07:09:31.159Z,88.31
2022-12-13T07:11:58.196Z,88.38
2022-12-13T07:14:25.140Z,88.43
2022-12-13T07:16:52.046Z,87.96
2022-12-13T07:19:22.869Z,88.95
2022-12-13T07:21:51.418Z,88.24
2022-12-13T07:24:18.314Z,87.68
2022-12-13T07:26:45.153Z,87.38
2022-12-13T07:29:11.968Z,87.77
2022-12-13T07:31:38.928Z,87.28
2022-12-13T07:34:05.857Z,86.14
2022-12-13T07:36:32.647Z,87.16
2022-12-13T07:38:59.582Z,85.65
2022-12-13T07:41:27.308Z,86.23
2022-12-13T07:43:56.207Z,85.58
2022-12-13T07:46:33.018Z,86.38
2022-12-13T07:49:05.103Z,84.93
2022-12-13T07:51:34.970Z,84.81
2022-12-13T07:54:06.860Z,84.31
2022-12-13T07:56:35.263Z,83.64
2022-12-13T07:59:02.502Z,82.75
2022-12-13T08:01:31.766Z,82.04
2022-12-13T08:03:58.586Z,81.92
2022-12-13T08:06:25.368Z,81.76
2022-12-13T08:08:58.280Z,81.98
2022-12-13T08:11:25.176Z,81.38
2022-12-13T08:13:54.832Z,80.56
2022-12-13T08:16:27.532Z,76.19
2022-12-13T08:19:02.425Z,73.08
2022-12-13T08:21:53.960Z,70.65
2022-12-13T08:24:24.216Z,68.43
2022-12-13T08:26:51.239Z,67.10
2022-12-13T08:29:23.065Z,66.06
2022-12-13T08:32:06.383Z,66.73
2022-12-13T08:34:33.319Z,65.01
2022-12-13T08:37:02.126Z,65.37
2022-12-13T08:39:34.118Z,65.03
2022-12-13T08:42:16.211Z,65.32
2022-12-13T08:44:50.416Z,66.02
2022-12-13T08:47:24.826Z,65.13
2022-12-13T08:50:03.962Z,64.71
2022-12-13T08:52:40.626Z,61.44
2022-12-13T08:55:14.540Z,61.00
2022-12-13T08:57:42.907Z,62.17
2022-12-13T09:00:14.928Z,62.01
2022-12-13T09:02:42.147Z,60.87
2022-12-13T09:05:11.000Z,63.30
2022-12-13T09:07:41.135Z,66.61
2022-12-13T09:10:26.738Z,67.89
2022-12-13T09:13:01.810Z,69.27
2022-12-13T09:15:34.090Z,70.70
2022-12-13T09:18:04.318Z,71.50
2022-12-13T09:20:40.831Z,71.85
2022-12-13T09:23:14.148Z,73.07
2022-12-13T09:26:05.984Z,73.16
2022-12-13T09:28:35.374Z,75.39
2022-12-13T09:31:10.314Z,76.24
2022-12-13T09:33:41.180Z,76.54
2022-12-13T09:36:12.669Z,76.09
2022-12-13T09:38:39.671Z,78.20
2022-12-13T09:41:29.877Z,78.38
2022-12-13T09:44:32.042Z,78.21
2022-12-13T09:47:13.108Z,78.37
2022-12-13T09:49:52.041Z,78.43
2022-12-13T09:52:22.433Z,77.83
2022-12-13T09:54:53.757Z,77.21
2022-12-13T09:57:40.867Z,77.73
2022-12-13T10:00:14.655Z,77.08
2022-12-13T10:02:51.800Z,77.70
2022-12-13T10:05:39.561Z,77.67
2022-12-13T10:08:16.778Z,76.92
2022-12-13T10:10:44.254Z,77.92
2022-12-13T10:13:48.021Z,78.66
2022-12-13T10:16:44.031Z,78.84
2022-12-13T10:19:32.157Z,78.99
2022-12-13T10:22:01.991Z,78.19
2022-12-13T10:24:55.667Z,79.98
2022-12-13T10:27:40.992Z,78.90
2022-12-13T10:30:28.090Z,78.89
2022-12-13T10:33:03.513Z,79.61
2022-12-13T10:35:34.342Z,78.52
2022-12-13T10:38:31.768Z,79.71
2022-12-13T10:41:00.990Z,80.81
2022-12-13T10:43:30.418Z,80.16
2022-12-13T10:46:02.382Z,80.10
2022-12-13T10:48:38.937Z,79.02
2022-12-13T10:51:11.186Z,80.68
2022-12-13T10:54:00.547Z,80.15
2022-12-13T10:56:39.887Z,79.53
2022-12-13T10:59:38.646Z,78.60
2022-12-13T11:02:41.628Z,79.21
2022-12-13T11:05:32.429Z,77.99
2022-12-13T11:08:26.589Z,79.69
2022-12-13T11:10:59.082Z,78.97
2022-12-13T11:13:40.783Z,79.29
2022-12-13T11:16:33.085Z,79.16
2022-12-13T11:19:11.510Z,79.44
2022-12-13T11:21:39.556Z,80.08
2022-12-13T11:24:08.183Z,79.64
2022-12-13T11:26:39.683Z,79.15
2022-12-13T11:29:36.383Z,78.87
2022-12-13T11:32:39.070Z,79.39
2022-12-13T11:35:53.932Z,78.81
2022-12-13T11:39:02.910Z,79.19
2022-12-13T11:41:47.599Z,79.21
2022-12-13T11:44:41.803Z,79.26
2022-12-13T11:47:24.723Z,78.95
2022-12-13T11:49:52.811Z,79.68
2022-12-13T11:52:30.972Z,79.29
2022-12-13T11:55:10.105Z,78.93
2022-12-13T11:58:05.634Z,79.43
2022-12-13T12:00:35.570Z,80.23
2022-12-13T12:03:32.338Z,79.30
2022-12-13T12:06:12.760Z,80.69
2022-12-13T12:08:51.241Z,81.51
2022-12-13T12:11:29.999Z,81.42
2022-12-13T12:14:27.084Z,81.86
2022-12-13T12:16:57.982Z,79.79
2022-12-13T12:19:32.652Z,81.20
2022-12-13T12:22:31.641Z,80.01
2022-12-13T12:25:23.455Z,79.57
2022-12-13T12:28:04.849Z,79.93
2022-12-13T12:30:55.866Z,80.59
2022-12-13T12:33:41.423Z,79.69
2022-12-13T12:36:25.405Z,80.88
2022-12-13T12:39:12.853Z,80.58
2022-12-13T12:42:16.615Z,81.01
2022-12-13T12:44:49.452Z,82.08
2022-12-13T12:51:09.060Z,80.67
2022-12-13T12:54:32.308Z,81.14
2022-12-13T12:57:49.444Z,80.16
2022-12-13T13:00:23.949Z,80.14
2022-12-13T13:03:22.620Z,81.08
2022-12-13T13:06:25.126Z,80.46
2022-12-13T13:09:05.550Z,81.70
2022-12-13T13:11:43.656Z,81.13
2022-12-13T13:14:32.818Z,81.68
2022-12-13T13:17:23.915Z,81.71
2022-12-13T13:20:20.840Z,81.64
2022-12-13T13:23:03.935Z,81.17
2022-12-13T13:25:53.915Z,81.24
2022-12-13T13:28:22.810Z,81.78
2022-12-13T13:31:04.879Z,80.88
2022-12-13T13:33:58.376Z,80.73
2022-12-13T13:36:43.248Z,80.85
2022-12-13T13:39:56.339Z,81.03
2022-12-13T13:42:31.926Z,81.93
2022-12-13T13:45:22.334Z,80.57
2022-12-13T13:48:14.213Z,80.35
2022-12-13T13:51:41.387Z,80.23
2022-12-13T13:54:41.987Z,80.91
2022-12-13T13:58:07.680Z,80.44
2022-12-13T14:00:41.382Z,80.17
2022-12-13T14:03:56.332Z,79.86
2022-12-13T14:06:53.709Z,79.39
2022-12-13T14:10:10.140Z,79.70
2022-12-13T14:13:26.697Z,79.04
2022-12-13T14:16:27.913Z,79.36
2022-12-13T14:19:33.372Z,78.88
2022-12-13T14:22:49.697Z,79.67
2022-12-13T14:25:53.701Z,79.80
2022-12-13T14:28:51.246Z,79.68
2022-12-13T14:31:45.399Z,80.13
2022-12-13T14:34:27.866Z,79.73
2022-12-13T14:37:04.064Z,79.96
2022-12-13T14:39:34.598Z,80.57
2022-12-13T14:42:24.313Z,79.49
2022-12-13T14:44:51.807Z,80.00
2022-12-13T14:47:19.968Z,79.78
2022-12-13T14:49:52.357Z,80.20
2022-12-13T14:52:39.654Z,79.98
2022-12-13T14:55:09.045Z,80.97
2022-12-13T14:57:35.953Z,80.43
2022-12-13T15:00:25.649Z,80.30
2022-12-13T15:02:57.753Z,81.09
2022-12-13T15:05:44.312Z,81.92
2022-12-13T15:08:18.855Z,81.34
2022-12-13T15:10:57.951Z,81.37
2022-12-13T15:13:43.791Z,81.14
2022-12-13T15:16:28.059Z,82.17
2022-12-13T15:19:29.609Z,80.29
2022-12-13T15:22:02.582Z,80.45
2022-12-13T15:24:40.609Z,80.62
2022-12-13T15:27:09.218Z,81.30
2022-12-13T15:29:37.189Z,81.17
2022-12-13T15:32:05.498Z,81.22
2022-12-13T15:34:37.208Z,80.75
2022-12-13T15:37:29.006Z,80.48
2022-12-13T15:40:06.969Z,80.25
2022-12-13T15:42:39.437Z,79.92
2022-12-13T15:45:22.375Z,80.16
2022-12-13T15:47:50.039Z,80.10
2022-12-13T15:50:35.623Z,80.17
2022-12-13T15:53:25.476Z,79.83
2022-12-13T15:55:52.882Z,79.83
2022-12-13T15:58:35.887Z,79.29
2022-12-13T16:01:05.410Z,79.38
2022-12-13T16:03:44.507Z,79.02
2022-12-13T16:06:18.467Z,78.73
2022-12-13T16:08:49.973Z,78.40
2022-12-13T16:11:30.426Z,79.01
2022-12-13T16:14:31.999Z,78.72
2022-12-13T16:17:26.041Z,79.96
2022-12-13T16:19:54.644Z,78.79
2022-12-13T16:22:23.833Z,78.72
2022-12-13T16:24:56.265Z,78.04
2022-12-13T16:27:23.213Z,77.20
2022-12-13T16:29:50.017Z,75.73
2022-12-13T16:32:16.949Z,73.60
2022-12-13T16:34:43.948Z,72.85
2022-12-13T16:37:25.606Z,73.18
2022-12-13T16:39:54.470Z,72.58
2022-12-13T16:42:21.814Z,72.80
2022-12-13T16:45:11.309Z,71.88
2022-12-13T16:47:48.028Z,71.50
2022-12-13T16:50:19.468Z,70.16
2022-12-13T16:52:46.693Z,71.43
2022-12-13T16:55:13.691Z,72.67
2022-12-13T16:57:40.705Z,72.74
2022-12-13T17:00:10.415Z,72.68
2022-12-13T17:02:37.880Z,70.75
2022-12-13T17:05:06.060Z,71.41
2022-12-13T17:07:33.294Z,69.02
2022-12-13T17:10:00.374Z,68.97
2022-12-13T17:12:27.197Z,69.30
2022-12-13T17:14:54.368Z,67.98
2022-12-13T17:17:21.576Z,68.10
2022-12-13T17:19:48.543Z,67.88
2022-12-13T17:22:15.349Z,67.51
2022-12-13T17:24:42.216Z,67.57
2022-12-13T17:27:09.620Z,67.11
2022-12-13T17:29:36.733Z,67.08
2022-12-13T17:32:04.563Z,66.87
2022-12-13T17:34:31.786Z,66.59
2022-12-13T17:36:58.603Z,67.16
2022-12-13T17:39:25.607Z,66.09
2022-12-13T17:41:54.460Z,66.60
2022-12-13T17:44:26.341Z,66.83
2022-12-13T17:46:55.177Z,66.74
2022-12-13T17:49:23.660Z,67.07
2022-12-13T17:51:52.778Z,67.53
2022-12-13T17:54:21.134Z,66.82
2022-12-13T17:56:48.565Z,67.20
2022-12-13T17:59:16.327Z,67.47
2022-12-13T18:01:44.466Z,67.08
2022-12-13T18:04:12.642Z,66.31
2022-12-13T18:06:40.620Z,66.53
2022-12-13T18:09:08.769Z,66.92
2022-12-13T18:11:35.905Z,66.01
2022-12-13T18:14:05.492Z,66.07
2022-12-13T18:16:37.594Z,66.00
2022-12-13T18:19:08.733Z,66.86
2022-12-13T18:21:36.555Z,66.37
2022-12-13T18:24:03.711Z,67.29
2022-12-13T18:26:30.515Z,65.85
2022-12-13T18:28:57.361Z,66.65
2022-12-13T18:31:25.583Z,66.44
2022-12-13T18:33:54.434Z,66.05
2022-12-13T18:36:24.703Z,66.90
2022-12-13T18:38:51.801Z,66.25
2022-12-13T18:41:22.654Z,66.43
2022-12-13T18:43:59.448Z,65.38
2022-12-13T18:46:29.222Z,66.18
2022-12-13T18:48:56.816Z,66.44
2022-12-13T18:51:24.153Z,66.71
2022-12-13T18:53:51.739Z,66.58
2022-12-13T18:56:19.456Z,67.34
2022-12-13T18:58:48.236Z,66.50
2022-12-13T19:01:17.409Z,66.11
2022-12-13T19:03:46.663Z,66.05
2022-12-13T19:06:20.777Z,66.05
2022-12-13T19:08:53.049Z,66.54
2022-12-13T19:11:20.694Z,67.27
2022-12-13T19:13:48.401Z,67.45
2022-12-13T19:16:19.341Z,67.87
2022-12-13T19:18:46.405Z,67.55
2022-12-13T19:21:20.013Z,66.97
2022-12-13T19:23:55.018Z,67.00
2022-12-13T19:26:24.203Z,67.13
2022-12-13T19:28:51.033Z,67.93
2022-12-13T19:31:17.910Z,67.19
2022-12-13T19:33:44.751Z,67.76
2022-12-13T19:36:11.889Z,67.34
2022-12-13T19:38:39.939Z,67.28
2022-12-13T19:41:14.285Z,66.90
2022-12-13T19:43:42.269Z,67.33
2022-12-13T19:46:09.558Z,67.13
2022-12-13T19:48:37.750Z,67.99
2022-12-13T19:51:07.938Z,67.07
2022-12-13T19:53:36.217Z,67.41
2022-12-13T19:56:12.812Z,67.52
2022-12-13T19:58:40.453Z,67.43
2022-12-13T20:01:08.676Z,67.85
2022-12-13T20:03:39.691Z,68.56
2022-12-13T20:06:10.571Z,68.15
2022-12-13T20:08:37.389Z,68.09
2022-12-13T20:11:14.822Z,68.64
2022-12-13T20:13:41.725Z,67.79
2022-12-13T20:16:09.105Z,68.50
2022-12-13T20:18:35.944Z,68.70
2022-12-13T20:21:12.938Z,70.00
2022-12-13T20:26:31.531Z,69.45
2022-12-13T20:27:23.325Z,70.00
2022-12-13T20:28:58.419Z,70.23
2022-12-13T20:31:30.195Z,69.74
2022-12-13T20:33:58.945Z,69.15
2022-12-13T20:36:28.535Z,69.19
2022-12-13T20:38:57.993Z,68.92
2022-12-13T20:41:28.342Z,69.16
2022-12-13T20:43:57.970Z,70.19
2022-12-13T20:46:26.168Z,70.34
2022-12-13T20:48:57.947Z,68.89
2022-12-13T20:51:29.994Z,69.43
2022-12-13T20:53:57.598Z,69.29
2022-12-13T20:56:34.275Z,70.35
2022-12-13T20:59:07.730Z,70.25
2022-12-13T21:01:43.440Z,70.90
2022-12-13T21:04:11.517Z,71.62
2022-12-13T21:06:41.405Z,71.65
2022-12-13T21:09:10.910Z,71.40
2022-12-13T21:11:46.986Z,71.57
2022-12-13T21:14:25.112Z,70.71
2022-12-13T21:16:56.972Z,70.98
2022-12-13T21:19:27.802Z,70.76
2022-12-13T21:21:58.755Z,70.40
2022-12-13T21:24:27.595Z,68.57
2022-12-13T21:26:56.521Z,68.15
2022-12-13T21:29:23.948Z,67.65
2022-12-13T21:31:50.946Z,67.22
2022-12-13T21:34:18.882Z,67.90
2022-12-13T21:36:51.884Z,67.67
2022-12-13T21:39:22.672Z,67.12
2022-12-13T21:41:50.450Z,67.03
2022-12-13T21:44:19.219Z,66.52
2022-12-13T21:49:33.680Z,68.03
2022-12-13T21:52:00.592Z,68.98
2022-12-13T21:54:27.374Z,69.96
2022-12-13T21:57:12.631Z,70.55
2022-12-13T21:59:40.905Z,71.02
2022-12-13T22:02:15.970Z,71.20
2022-12-13T22:04:47.396Z,71.90
2022-12-13T22:07:17.277Z,71.34
2022-12-13T22:09:45.350Z,70.32
2022-12-13T22:12:41.888Z,69.08
2022-12-13T22:15:15.117Z,68.14
2022-12-13T22:17:45.362Z,66.26
2022-12-13T22:20:15.287Z,66.63
2022-12-13T22:22:44.178Z,65.84
2022-12-13T22:25:11.062Z,65.03
2022-12-13T22:27:38.054Z,65.06
2022-12-13T22:30:05.784Z,65.42
2022-12-13T22:32:32.722Z,65.00
2022-12-13T22:34:59.838Z,64.34
2022-12-13T22:37:26.832Z,64.15
2022-12-13T22:39:54.366Z,64.54
2022-12-13T22:42:21.668Z,64.17
2022-12-13T22:44:48.678Z,64.42
2022-12-13T22:47:15.689Z,64.16
2022-12-13T22:49:42.594Z,63.61
2022-12-13T22:52:09.807Z,63.27
2022-12-13T22:54:36.779Z,63.70
2022-12-13T22:57:04.128Z,63.52
2022-12-13T22:59:31.276Z,63.18
2022-12-13T23:02:02.512Z,64.36
2022-12-13T23:04:31.751Z,64.46
2022-12-13T23:06:59.964Z,64.32
2022-12-13T23:09:26.946Z,64.18
2022-12-13T23:12:12.638Z,64.11
2022-12-13T23:14:39.531Z,63.02
2022-12-13T23:17:06.833Z,63.58
2022-12-13T23:19:48.781Z,63.55
2022-12-13T23:22:16.095Z,63.72
2022-12-13T23:24:42.979Z,63.75
2022-12-13T23:27:54.775Z,63.10
2022-12-13T23:30:21.635Z,63.15
2022-12-13T23:32:48.450Z,65.11
2022-12-13T23:35:15.348Z,65.54
2022-12-13T23:37:42.205Z,66.08
2022-12-13T23:40:09.950Z,66.22
2022-12-13T23:42:36.784Z,66.82
2022-12-13T23:45:03.921Z,67.03
2022-12-13T23:47:30.843Z,67.97
2022-12-13T23:49:57.673Z,68.74
2022-12-13T23:52:24.565Z,68.54
2022-12-13T23:54:51.384Z,68.49
2022-12-13T23:57:18.203Z,67.41
2022-12-13T23:59:45.067Z,67.43
